sensor_id;sensor_type;location;lat;lon;timestamp;P1;durP1;ratioP1;P2;durP2;ratioP2
40320;SDS011;26027;51.454;6.628;2022-09-29T00:00:48;0.40;;;0.40;;
40320;SDS011;26027;51.454;6.628;2022-09-29T00:03:15;0.40;;;0.40;;
40320;SDS011;26027;51.454;6.628;2022-09-29T00:05:46;1.10;;;0.40;;
40320;SDS011;26027;51.454;6.628;2022-09-29T00:08:12;0.40;;;0.40;;
40320;SDS011;26027;51.454;6.628;2022-09-29T00:10:41;0.40;;;0.40;;
40320;SDS011;26027;51.454;6.628;2022-09-29T00:13:07;0.30;;;0.30;;
40320;SDS011;26027;51.454;6.628;2022-09-29T00:15:33;0.45;;;0.45;;
40320;SDS011;26027;51.454;6.628;2022-09-29T00:17:59;0.50;;;0.50;;
40320;SDS011;26027;51.454;6.628;2022-09-29T00:20:25;0.40;;;0.40;;
40320;SDS011;26027;51.454;6.628;2022-09-29T00:22:51;0.30;;;0.30;;
40320;SDS011;26027;51.454;6.628;2022-09-29T00:25:17;0.50;;;0.50;;
40320;SDS011;26027;51.454;6.628;2022-09-29T00:27:43;0.30;;;0.30;;
40320;SDS011;26027;51.454;6.628;2022-09-29T00:30:10;0.40;;;0.40;;
40320;SDS011;26027;51.454;6.628;2022-09-29T00:32:36;0.30;;;0.30;;
40320;SDS011;26027;51.454;6.628;2022-09-29T00:35:02;0.55;;;0.55;;
40320;SDS011;26027;51.454;6.628;2022-09-29T00:37:28;0.35;;;0.30;;
40320;SDS011;26027;51.454;6.628;2022-09-29T00:39:54;0.38;;;0.30;;
40320;SDS011;26027;51.454;6.628;2022-09-29T00:42:20;0.40;;;0.40;;
40320;SDS011;26027;51.454;6.628;2022-09-29T00:44:58;0.38;;;0.38;;
40320;SDS011;26027;51.454;6.628;2022-09-29T00:47:26;0.55;;;0.50;;
40320;SDS011;26027;51.454;6.628;2022-09-29T00:52:24;0.30;;;0.30;;
40320;SDS011;26027;51.454;6.628;2022-09-29T00:54:56;0.50;;;0.50;;
40320;SDS011;26027;51.454;6.628;2022-09-29T00:57:28;0.33;;;0.33;;
40320;SDS011;26027;51.454;6.628;2022-09-29T01:00:03;0.30;;;0.30;;
40320;SDS011;26027;51.454;6.628;2022-09-29T01:02:31;0.40;;;0.40;;
40320;SDS011;26027;51.454;6.628;2022-09-29T01:04:58;0.43;;;0.43;;
40320;SDS011;26027;51.454;6.628;2022-09-29T01:07:25;0.43;;;0.43;;
40320;SDS011;26027;51.454;6.628;2022-09-29T01:09:53;0.30;;;0.30;;
40320;SDS011;26027;51.454;6.628;2022-09-29T01:12:20;0.30;;;0.30;;
40320;SDS011;26027;51.454;6.628;2022-09-29T01:14:46;0.47;;;0.47;;
40320;SDS011;26027;51.454;6.628;2022-09-29T01:17:12;0.43;;;0.43;;
40320;SDS011;26027;51.454;6.628;2022-09-29T01:19:48;0.47;;;0.47;;
40320;SDS011;26027;51.454;6.628;2022-09-29T01:24:55;0.40;;;0.40;;
40320;SDS011;26027;51.454;6.628;2022-09-29T01:27:30;0.30;;;0.30;;
40320;SDS011;26027;51.454;6.628;2022-09-29T01:30:08;0.40;;;0.40;;
40320;SDS011;26027;51.454;6.628;2022-09-29T01:35:15;0.28;;;0.28;;
40320;SDS011;26027;51.454;6.628;2022-09-29T01:37:53;0.30;;;0.30;;
40320;SDS011;26027;51.454;6.628;2022-09-29T01:43:08;0.40;;;0.40;;
40320;SDS011;26027;51.454;6.628;2022-09-29T01:45:46;0.40;;;0.40;;
40320;SDS011;26027;51.454;6.628;2022-09-29T01:48:17;0.30;;;0.30;;
40320;SDS011;26027;51.454;6.628;2022-09-29T01:50:47;0.40;;;0.40;;
40320;SDS011;26027;51.454;6.628;2022-09-29T01:53:15;0.30;;;0.30;;
40320;SDS011;26027;51.454;6.628;2022-09-29T01:55:43;0.52;;;0.52;;
40320;SDS011;26027;51.454;6.628;2022-09-29T01:58:15;0.30;;;0.30;;
40320;SDS011;26027;51.454;6.628;2022-09-29T02:00:44;0.32;;;0.32;;
40320;SDS011;26027;51.454;6.628;2022-09-29T02:03:16;0.40;;;0.40;;
40320;SDS011;26027;51.454;6.628;2022-09-29T02:05:45;0.40;;;0.40;;
40320;SDS011;26027;51.454;6.628;2022-09-29T02:08:14;0.50;;;0.50;;
40320;SDS011;26027;51.454;6.628;2022-09-29T02:10:52;0.40;;;0.40;;
40320;SDS011;26027;51.454;6.628;2022-09-29T02:13:20;0.30;;;0.30;;
40320;SDS011;26027;51.454;6.628;2022-09-29T02:15:48;0.40;;;0.40;;
40320;SDS011;26027;51.454;6.628;2022-09-29T02:18:16;0.43;;;0.43;;
40320;SDS011;26027;51.454;6.628;2022-09-29T02:20:45;0.20;;;0.20;;
40320;SDS011;26027;51.454;6.628;2022-09-29T02:23:11;0.40;;;0.40;;
40320;SDS011;26027;51.454;6.628;2022-09-29T02:25:37;0.50;;;0.50;;
40320;SDS011;26027;51.454;6.628;2022-09-29T02:28:03;0.28;;;0.28;;
40320;SDS011;26027;51.454;6.628;2022-09-29T02:30:30;0.40;;;0.40;;
40320;SDS011;26027;51.454;6.628;2022-09-29T02:32:56;0.30;;;0.30;;
40320;SDS011;26027;51.454;6.628;2022-09-29T02:35:22;0.40;;;0.40;;
40320;SDS011;26027;51.454;6.628;2022-09-29T02:42:57;0.20;;;0.20;;
40320;SDS011;26027;51.454;6.628;2022-09-29T02:45:40;0.30;;;0.30;;
40320;SDS011;26027;51.454;6.628;2022-09-29T02:56:17;0.45;;;0.45;;
40320;SDS011;26027;51.454;6.628;2022-09-29T02:58:56;0.32;;;0.32;;
40320;SDS011;26027;51.454;6.628;2022-09-29T03:01:24;0.30;;;0.30;;
40320;SDS011;26027;51.454;6.628;2022-09-29T03:03:50;0.40;;;0.40;;
40320;SDS011;26027;51.454;6.628;2022-09-29T03:06:17;0.30;;;0.30;;
40320;SDS011;26027;51.454;6.628;2022-09-29T03:08:45;0.20;;;0.20;;
40320;SDS011;26027;51.454;6.628;2022-09-29T03:11:11;0.38;;;0.38;;
40320;SDS011;26027;51.454;6.628;2022-09-29T03:13:37;1.02;;;0.45;;
40320;SDS011;26027;51.454;6.628;2022-09-29T03:16:03;0.60;;;0.55;;
40320;SDS011;26027;51.454;6.628;2022-09-29T03:18:29;0.20;;;0.20;;
40320;SDS011;26027;51.454;6.628;2022-09-29T03:20:55;0.30;;;0.30;;
40320;SDS011;26027;51.454;6.628;2022-09-29T03:23:21;0.20;;;0.20;;
40320;SDS011;26027;51.454;6.628;2022-09-29T03:25:47;0.35;;;0.35;;
40320;SDS011;26027;51.454;6.628;2022-09-29T03:28:13;0.40;;;0.40;;
40320;SDS011;26027;51.454;6.628;2022-09-29T03:30:40;0.40;;;0.40;;
40320;SDS011;26027;51.454;6.628;2022-09-29T03:33:06;0.60;;;0.32;;
40320;SDS011;26027;51.454;6.628;2022-09-29T03:35:32;0.30;;;0.30;;
40320;SDS011;26027;51.454;6.628;2022-09-29T03:37:59;0.30;;;0.30;;
40320;SDS011;26027;51.454;6.628;2022-09-29T03:40:25;0.40;;;0.40;;
40320;SDS011;26027;51.454;6.628;2022-09-29T03:42:51;0.30;;;0.30;;
40320;SDS011;26027;51.454;6.628;2022-09-29T03:45:17;0.40;;;0.40;;
40320;SDS011;26027;51.454;6.628;2022-09-29T03:47:43;0.25;;;0.25;;
40320;SDS011;26027;51.454;6.628;2022-09-29T03:50:09;0.40;;;0.40;;
40320;SDS011;26027;51.454;6.628;2022-09-29T03:52:35;0.25;;;0.25;;
40320;SDS011;26027;51.454;6.628;2022-09-29T03:55:01;0.30;;;0.30;;
40320;SDS011;26027;51.454;6.628;2022-09-29T03:57:27;0.30;;;0.30;;
40320;SDS011;26027;51.454;6.628;2022-09-29T03:59:53;0.30;;;0.30;;
40320;SDS011;26027;51.454;6.628;2022-09-29T04:02:20;0.43;;;0.43;;
40320;SDS011;26027;51.454;6.628;2022-09-29T04:04:46;0.43;;;0.43;;
40320;SDS011;26027;51.454;6.628;2022-09-29T04:07:12;0.25;;;0.25;;
40320;SDS011;26027;51.454;6.628;2022-09-29T04:09:38;0.43;;;0.43;;
40320;SDS011;26027;51.454;6.628;2022-09-29T04:12:04;0.43;;;0.43;;
40320;SDS011;26027;51.454;6.628;2022-09-29T04:14:30;0.30;;;0.30;;
40320;SDS011;26027;51.454;6.628;2022-09-29T04:16:56;0.40;;;0.32;;
40320;SDS011;26027;51.454;6.628;2022-09-29T04:19:22;0.38;;;0.38;;
40320;SDS011;26027;51.454;6.628;2022-09-29T04:21:48;0.22;;;0.22;;
40320;SDS011;26027;51.454;6.628;2022-09-29T04:24:14;0.20;;;0.20;;
40320;SDS011;26027;51.454;6.628;2022-09-29T04:26:40;0.28;;;0.28;;
40320;SDS011;26027;51.454;6.628;2022-09-29T04:29:06;0.30;;;0.30;;
40320;SDS011;26027;51.454;6.628;2022-09-29T04:31:32;0.43;;;0.43;;
40320;SDS011;26027;51.454;6.628;2022-09-29T04:33:58;0.40;;;0.40;;
40320;SDS011;26027;51.454;6.628;2022-09-29T04:36:24;0.30;;;0.30;;
40320;SDS011;26027;51.454;6.628;2022-09-29T04:38:51;0.25;;;0.25;;
40320;SDS011;26027;51.454;6.628;2022-09-29T04:41:17;0.40;;;0.40;;
40320;SDS011;26027;51.454;6.628;2022-09-29T04:43:43;0.30;;;0.30;;
40320;SDS011;26027;51.454;6.628;2022-09-29T04:46:09;0.40;;;0.40;;
40320;SDS011;26027;51.454;6.628;2022-09-29T04:48:35;0.35;;;0.35;;
40320;SDS011;26027;51.454;6.628;2022-09-29T04:51:02;0.30;;;0.30;;
40320;SDS011;26027;51.454;6.628;2022-09-29T04:53:29;0.55;;;0.43;;
40320;SDS011;26027;51.454;6.628;2022-09-29T04:55:55;0.30;;;0.30;;
40320;SDS011;26027;51.454;6.628;2022-09-29T04:58:21;0.35;;;0.35;;
40320;SDS011;26027;51.454;6.628;2022-09-29T05:00:47;0.40;;;0.40;;
40320;SDS011;26027;51.454;6.628;2022-09-29T05:03:13;0.35;;;0.35;;
40320;SDS011;26027;51.454;6.628;2022-09-29T05:05:39;0.82;;;0.50;;
40320;SDS011;26027;51.454;6.628;2022-09-29T05:08:05;0.20;;;0.20;;
40320;SDS011;26027;51.454;6.628;2022-09-29T05:10:31;0.43;;;0.40;;
40320;SDS011;26027;51.454;6.628;2022-09-29T05:12:57;0.30;;;0.30;;
40320;SDS011;26027;51.454;6.628;2022-09-29T05:15:23;0.47;;;0.47;;
40320;SDS011;26027;51.454;6.628;2022-09-29T05:17:49;0.32;;;0.32;;
40320;SDS011;26027;51.454;6.628;2022-09-29T05:20:15;0.40;;;0.40;;
40320;SDS011;26027;51.454;6.628;2022-09-29T05:22:41;0.40;;;0.40;;
40320;SDS011;26027;51.454;6.628;2022-09-29T05:25:08;0.40;;;0.40;;
40320;SDS011;26027;51.454;6.628;2022-09-29T05:27:37;0.38;;;0.38;;
40320;SDS011;26027;51.454;6.628;2022-09-29T05:30:03;0.30;;;0.30;;
40320;SDS011;26027;51.454;6.628;2022-09-29T05:32:30;0.40;;;0.20;;
40320;SDS011;26027;51.454;6.628;2022-09-29T05:34:56;0.52;;;0.52;;
40320;SDS011;26027;51.454;6.628;2022-09-29T05:37:22;0.45;;;0.45;;
40320;SDS011;26027;51.454;6.628;2022-09-29T05:39:48;0.30;;;0.30;;
40320;SDS011;26027;51.454;6.628;2022-09-29T05:42:14;0.43;;;0.43;;
40320;SDS011;26027;51.454;6.628;2022-09-29T05:44:40;0.40;;;0.40;;
40320;SDS011;26027;51.454;6.628;2022-09-29T05:47:06;0.40;;;0.40;;
40320;SDS011;26027;51.454;6.628;2022-09-29T05:49:32;0.40;;;0.40;;
40320;SDS011;26027;51.454;6.628;2022-09-29T05:52:00;0.43;;;0.30;;
40320;SDS011;26027;51.454;6.628;2022-09-29T05:54:26;0.40;;;0.40;;
40320;SDS011;26027;51.454;6.628;2022-09-29T05:56:53;0.28;;;0.28;;
40320;SDS011;26027;51.454;6.628;2022-09-29T05:59:20;0.50;;;0.50;;
40320;SDS011;26027;51.454;6.628;2022-09-29T06:01:46;0.40;;;0.40;;
40320;SDS011;26027;51.454;6.628;2022-09-29T06:04:12;0.43;;;0.43;;
40320;SDS011;26027;51.454;6.628;2022-09-29T06:06:38;0.60;;;0.50;;
40320;SDS011;26027;51.454;6.628;2022-09-29T06:09:07;0.47;;;0.47;;
40320;SDS011;26027;51.454;6.628;2022-09-29T06:11:33;0.38;;;0.38;;
40320;SDS011;26027;51.454;6.628;2022-09-29T06:13:59;0.82;;;0.35;;
40320;SDS011;26027;51.454;6.628;2022-09-29T06:16:27;0.35;;;0.35;;
40320;SDS011;26027;51.454;6.628;2022-09-29T06:18:53;0.88;;;0.70;;
40320;SDS011;26027;51.454;6.628;2022-09-29T06:21:20;0.80;;;0.80;;
40320;SDS011;26027;51.454;6.628;2022-09-29T06:23:47;0.75;;;0.73;;
40320;SDS011;26027;51.454;6.628;2022-09-29T06:26:15;0.60;;;0.60;;
40320;SDS011;26027;51.454;6.628;2022-09-29T06:28:42;2.00;;;0.82;;
40320;SDS011;26027;51.454;6.628;2022-09-29T06:31:11;0.60;;;0.60;;
40320;SDS011;26027;51.454;6.628;2022-09-29T06:33:37;2.20;;;0.90;;
40320;SDS011;26027;51.454;6.628;2022-09-29T06:36:08;1.10;;;0.90;;
40320;SDS011;26027;51.454;6.628;2022-09-29T06:38:54;0.70;;;0.70;;
40320;SDS011;26027;51.454;6.628;2022-09-29T06:41:21;2.83;;;0.93;;
40320;SDS011;26027;51.454;6.628;2022-09-29T06:43:47;1.98;;;0.75;;
40320;SDS011;26027;51.454;6.628;2022-09-29T06:46:13;1.08;;;0.80;;
40320;SDS011;26027;51.454;6.628;2022-09-29T06:48:39;0.95;;;0.85;;
40320;SDS011;26027;51.454;6.628;2022-09-29T06:51:05;0.73;;;0.65;;
40320;SDS011;26027;51.454;6.628;2022-09-29T06:53:32;0.95;;;0.90;;
40320;SDS011;26027;51.454;6.628;2022-09-29T06:55:58;1.30;;;0.57;;
40320;SDS011;26027;51.454;6.628;2022-09-29T06:58:26;1.45;;;0.80;;
40320;SDS011;26027;51.454;6.628;2022-09-29T07:00:52;0.80;;;0.80;;
40320;SDS011;26027;51.454;6.628;2022-09-29T07:03:19;1.00;;;0.85;;
40320;SDS011;26027;51.454;6.628;2022-09-29T07:05:45;2.05;;;0.60;;
40320;SDS011;26027;51.454;6.628;2022-09-29T07:08:11;1.30;;;1.00;;
40320;SDS011;26027;51.454;6.628;2022-09-29T07:10:37;1.75;;;0.90;;
40320;SDS011;26027;51.454;6.628;2022-09-29T07:13:03;1.38;;;1.15;;
40320;SDS011;26027;51.454;6.628;2022-09-29T07:15:30;3.42;;;1.10;;
40320;SDS011;26027;51.454;6.628;2022-09-29T07:17:57;1.45;;;0.93;;
40320;SDS011;26027;51.454;6.628;2022-09-29T07:20:24;3.17;;;0.90;;
40320;SDS011;26027;51.454;6.628;2022-09-29T07:22:50;1.48;;;0.95;;
40320;SDS011;26027;51.454;6.628;2022-09-29T07:25:16;1.45;;;1.00;;
40320;SDS011;26027;51.454;6.628;2022-09-29T07:27:42;2.00;;;0.90;;
40320;SDS011;26027;51.454;6.628;2022-09-29T07:30:08;1.38;;;1.27;;
40320;SDS011;26027;51.454;6.628;2022-09-29T07:32:35;1.95;;;1.10;;
40320;SDS011;26027;51.454;6.628;2022-09-29T07:35:01;1.20;;;0.88;;
40320;SDS011;26027;51.454;6.628;2022-09-29T07:37:27;1.25;;;0.80;;
40320;SDS011;26027;51.454;6.628;2022-09-29T07:39:54;0.90;;;0.90;;
40320;SDS011;26027;51.454;6.628;2022-09-29T07:42:20;1.63;;;1.00;;
40320;SDS011;26027;51.454;6.628;2022-09-29T07:44:46;1.67;;;0.98;;
40320;SDS011;26027;51.454;6.628;2022-09-29T07:47:13;1.33;;;0.93;;
40320;SDS011;26027;51.454;6.628;2022-09-29T07:49:41;4.15;;;1.10;;
40320;SDS011;26027;51.454;6.628;2022-09-29T07:52:07;5.05;;;1.50;;
40320;SDS011;26027;51.454;6.628;2022-09-29T07:54:33;1.83;;;1.10;;
40320;SDS011;26027;51.454;6.628;2022-09-29T07:56:59;1.00;;;0.90;;
40320;SDS011;26027;51.454;6.628;2022-09-29T07:59:27;2.75;;;0.90;;
40320;SDS011;26027;51.454;6.628;2022-09-29T08:01:54;1.85;;;0.95;;
40320;SDS011;26027;51.454;6.628;2022-09-29T08:04:20;4.45;;;1.05;;
40320;SDS011;26027;51.454;6.628;2022-09-29T08:06:46;5.20;;;1.77;;
40320;SDS011;26027;51.454;6.628;2022-09-29T08:09:12;1.17;;;1.00;;
40320;SDS011;26027;51.454;6.628;2022-09-29T08:11:39;1.83;;;1.10;;
40320;SDS011;26027;51.454;6.628;2022-09-29T08:14:06;1.88;;;1.10;;
40320;SDS011;26027;51.454;6.628;2022-09-29T08:16:33;2.25;;;1.10;;
40320;SDS011;26027;51.454;6.628;2022-09-29T08:18:59;1.80;;;1.00;;
40320;SDS011;26027;51.454;6.628;2022-09-29T08:21:26;3.50;;;1.13;;
40320;SDS011;26027;51.454;6.628;2022-09-29T08:23:52;7.50;;;1.17;;
40320;SDS011;26027;51.454;6.628;2022-09-29T08:26:19;3.20;;;1.58;;
40320;SDS011;26027;51.454;6.628;2022-09-29T08:28:46;3.53;;;1.10;;
40320;SDS011;26027;51.454;6.628;2022-09-29T08:31:13;2.30;;;1.00;;
40320;SDS011;26027;51.454;6.628;2022-09-29T08:33:41;1.58;;;1.00;;
40320;SDS011;26027;51.454;6.628;2022-09-29T08:36:09;3.33;;;1.25;;
40320;SDS011;26027;51.454;6.628;2022-09-29T08:38:45;2.55;;;1.13;;
40320;SDS011;26027;51.454;6.628;2022-09-29T08:43:57;1.42;;;0.95;;
40320;SDS011;26027;51.454;6.628;2022-09-29T08:46:37;2.67;;;1.40;;
40320;SDS011;26027;51.454;6.628;2022-09-29T08:49:06;2.25;;;1.27;;
40320;SDS011;26027;51.454;6.628;2022-09-29T08:51:38;2.17;;;1.10;;
40320;SDS011;26027;51.454;6.628;2022-09-29T08:54:29;2.83;;;1.30;;
40320;SDS011;26027;51.454;6.628;2022-09-29T08:56:53;3.50;;;1.17;;
40320;SDS011;26027;51.454;6.628;2022-09-29T08:59:19;2.97;;;1.30;;
40320;SDS011;26027;51.454;6.628;2022-09-29T09:07:23;1.90;;;1.48;;
40320;SDS011;26027;51.454;6.628;2022-09-29T09:09:59;2.58;;;1.30;;
40320;SDS011;26027;51.454;6.628;2022-09-29T09:15:13;2.03;;;1.40;;
40320;SDS011;26027;51.454;6.628;2022-09-29T09:23:00;1.50;;;1.40;;
40320;SDS011;26027;51.454;6.628;2022-09-29T09:28:03;4.50;;;1.67;;
40320;SDS011;26027;51.454;6.628;2022-09-29T09:30:34;3.47;;;1.58;;
40320;SDS011;26027;51.454;6.628;2022-09-29T09:33:01;3.35;;;1.60;;
40320;SDS011;26027;51.454;6.628;2022-09-29T09:35:40;2.63;;;1.50;;
40320;SDS011;26027;51.454;6.628;2022-09-29T09:38:15;2.70;;;1.60;;
40320;SDS011;26027;51.454;6.628;2022-09-29T09:40:43;2.33;;;1.60;;
40320;SDS011;26027;51.454;6.628;2022-09-29T09:43:11;3.78;;;1.60;;
40320;SDS011;26027;51.454;6.628;2022-09-29T09:46:41;1.65;;;1.55;;
40320;SDS011;26027;51.454;6.628;2022-09-29T09:48:35;2.47;;;2.03;;
40320;SDS011;26027;51.454;6.628;2022-09-29T09:51:15;2.72;;;1.65;;
40320;SDS011;26027;51.454;6.628;2022-09-29T09:53:44;2.20;;;1.45;;
40320;SDS011;26027;51.454;6.628;2022-09-29T09:56:18;1.85;;;1.42;;
40320;SDS011;26027;51.454;6.628;2022-09-29T10:01:15;1.38;;;1.27;;
40320;SDS011;26027;51.454;6.628;2022-09-29T10:03:41;1.45;;;1.30;;
40320;SDS011;26027;51.454;6.628;2022-09-29T10:06:07;2.05;;;1.40;;
40320;SDS011;26027;51.454;6.628;2022-09-29T10:08:34;2.47;;;1.55;;
40320;SDS011;26027;51.454;6.628;2022-09-29T10:11:25;1.40;;;1.30;;
40320;SDS011;26027;51.454;6.628;2022-09-29T10:13:54;1.60;;;1.50;;
40320;SDS011;26027;51.454;6.628;2022-09-29T10:16:24;1.67;;;1.40;;
40320;SDS011;26027;51.454;6.628;2022-09-29T10:18:52;2.38;;;1.48;;
40320;SDS011;26027;51.454;6.628;2022-09-29T10:21:33;1.60;;;1.20;;
40320;SDS011;26027;51.454;6.628;2022-09-29T10:24:00;1.30;;;1.20;;
40320;SDS011;26027;51.454;6.628;2022-09-29T10:26:28;1.40;;;1.30;;
40320;SDS011;26027;51.454;6.628;2022-09-29T10:28:57;1.65;;;1.40;;
40320;SDS011;26027;51.454;6.628;2022-09-29T10:33:53;1.30;;;1.20;;
40320;SDS011;26027;51.454;6.628;2022-09-29T10:36:20;1.65;;;1.50;;
40320;SDS011;26027;51.454;6.628;2022-09-29T10:38:48;2.70;;;1.55;;
40320;SDS011;26027;51.454;6.628;2022-09-29T10:41:15;1.65;;;1.55;;
40320;SDS011;26027;51.454;6.628;2022-09-29T10:43:42;3.33;;;1.50;;
40320;SDS011;26027;51.454;6.628;2022-09-29T10:49:12;1.35;;;1.27;;
40320;SDS011;26027;51.454;6.628;2022-09-29T10:51:39;4.07;;;1.38;;
40320;SDS011;26027;51.454;6.628;2022-09-29T10:54:09;1.23;;;1.15;;
40320;SDS011;26027;51.454;6.628;2022-09-29T10:56:35;3.53;;;1.40;;
40320;SDS011;26027;51.454;6.628;2022-09-29T10:59:01;1.55;;;1.45;;
40320;SDS011;26027;51.454;6.628;2022-09-29T11:01:32;1.60;;;1.30;;
40320;SDS011;26027;51.454;6.628;2022-09-29T11:04:03;2.22;;;1.50;;
40320;SDS011;26027;51.454;6.628;2022-09-29T11:06:32;1.73;;;1.30;;
40320;SDS011;26027;51.454;6.628;2022-09-29T11:11:51;1.20;;;1.00;;
40320;SDS011;26027;51.454;6.628;2022-09-29T11:14:25;1.70;;;1.10;;
40320;SDS011;26027;51.454;6.628;2022-09-29T11:16:52;1.45;;;1.15;;
40320;SDS011;26027;51.454;6.628;2022-09-29T11:19:19;1.75;;;1.17;;
40320;SDS011;26027;51.454;6.628;2022-09-29T11:30:04;2.92;;;1.35;;
40320;SDS011;26027;51.454;6.628;2022-09-29T11:38:07;1.48;;;1.10;;
40320;SDS011;26027;51.454;6.628;2022-09-29T11:46:05;1.52;;;1.10;;
40320;SDS011;26027;51.454;6.628;2022-09-29T11:56:00;1.00;;;1.00;;
40320;SDS011;26027;51.454;6.628;2022-09-29T11:58:38;1.30;;;1.20;;
40320;SDS011;26027;51.454;6.628;2022-09-29T12:06:39;3.20;;;1.30;;
40320;SDS011;26027;51.454;6.628;2022-09-29T12:16:34;2.97;;;1.30;;
40320;SDS011;26027;51.454;6.628;2022-09-29T12:19:09;1.17;;;0.90;;
40320;SDS011;26027;51.454;6.628;2022-09-29T12:21:38;2.25;;;1.00;;
40320;SDS011;26027;51.454;6.628;2022-09-29T12:24:06;2.40;;;1.17;;
40320;SDS011;26027;51.454;6.628;2022-09-29T12:26:35;1.80;;;1.10;;
40320;SDS011;26027;51.454;6.628;2022-09-29T12:29:17;3.38;;;1.15;;
40320;SDS011;26027;51.454;6.628;2022-09-29T12:31:45;1.38;;;1.10;;
40320;SDS011;26027;51.454;6.628;2022-09-29T12:34:59;2.42;;;1.17;;
40320;SDS011;26027;51.454;6.628;2022-09-29T12:37:04;4.43;;;1.33;;
40320;SDS011;26027;51.454;6.628;2022-09-29T12:42:11;2.85;;;1.25;;
40320;SDS011;26027;51.454;6.628;2022-09-29T12:44:40;1.63;;;1.30;;
40320;SDS011;26027;51.454;6.628;2022-09-29T12:47:09;3.03;;;1.38;;
40320;SDS011;26027;51.454;6.628;2022-09-29T12:49:45;2.97;;;1.10;;
40320;SDS011;26027;51.454;6.628;2022-09-29T12:52:16;2.03;;;1.20;;
40320;SDS011;26027;51.454;6.628;2022-09-29T12:54:46;3.45;;;1.15;;
40320;SDS011;26027;51.454;6.628;2022-09-29T12:57:14;6.07;;;1.55;;
40320;SDS011;26027;51.454;6.628;2022-09-29T12:59:50;2.88;;;1.00;;
40320;SDS011;26027;51.454;6.628;2022-09-29T13:18:03;1.80;;;1.20;;
40320;SDS011;26027;51.454;6.628;2022-09-29T13:25:39;3.35;;;1.33;;
40320;SDS011;26027;51.454;6.628;2022-09-29T13:28:20;2.03;;;1.00;;
40320;SDS011;26027;51.454;6.628;2022-09-29T13:30:46;2.20;;;1.20;;
40320;SDS011;26027;51.454;6.628;2022-09-29T13:33:15;1.40;;;0.90;;
40320;SDS011;26027;51.454;6.628;2022-09-29T13:35:45;2.58;;;1.00;;
40320;SDS011;26027;51.454;6.628;2022-09-29T13:38:14;1.00;;;0.90;;
40320;SDS011;26027;51.454;6.628;2022-09-29T13:41:07;1.50;;;1.08;;
40320;SDS011;26027;51.454;6.628;2022-09-29T13:43:37;1.95;;;0.93;;
40320;SDS011;26027;51.454;6.628;2022-09-29T13:48:52;1.20;;;1.10;;
40320;SDS011;26027;51.454;6.628;2022-09-29T13:51:25;2.22;;;0.98;;
40320;SDS011;26027;51.454;6.628;2022-09-29T13:56:37;3.50;;;0.90;;
40320;SDS011;26027;51.454;6.628;2022-09-29T13:59:03;1.80;;;1.00;;
40320;SDS011;26027;51.454;6.628;2022-09-29T14:01:33;1.45;;;1.00;;
40320;SDS011;26027;51.454;6.628;2022-09-29T14:06:45;1.95;;;0.90;;
40320;SDS011;26027;51.454;6.628;2022-09-29T14:09:13;1.63;;;0.93;;
40320;SDS011;26027;51.454;6.628;2022-09-29T14:11:42;1.83;;;1.13;;
40320;SDS011;26027;51.454;6.628;2022-09-29T14:14:28;1.77;;;1.00;;
40320;SDS011;26027;51.454;6.628;2022-09-29T14:29:47;1.52;;;1.10;;
40320;SDS011;26027;51.454;6.628;2022-09-29T14:32:16;1.80;;;0.90;;
40320;SDS011;26027;51.454;6.628;2022-09-29T14:34:43;4.13;;;1.08;;
40320;SDS011;26027;51.454;6.628;2022-09-29T14:37:17;2.55;;;1.05;;
40320;SDS011;26027;51.454;6.628;2022-09-29T14:39:45;2.22;;;1.00;;
40320;SDS011;26027;51.454;6.628;2022-09-29T14:42:31;1.00;;;0.80;;
40320;SDS011;26027;51.454;6.628;2022-09-29T14:44:57;3.55;;;1.33;;
40320;SDS011;26027;51.454;6.628;2022-09-29T14:47:52;2.85;;;1.02;;
40320;SDS011;26027;51.454;6.628;2022-09-29T14:50:42;1.17;;;0.70;;
40320;SDS011;26027;51.454;6.628;2022-09-29T14:58:27;1.70;;;0.80;;
40320;SDS011;26027;51.454;6.628;2022-09-29T15:03:52;1.77;;;0.90;;
40320;SDS011;26027;51.454;6.628;2022-09-29T15:06:24;2.88;;;0.88;;
40320;SDS011;26027;51.454;6.628;2022-09-29T15:08:52;1.40;;;1.10;;
40320;SDS011;26027;51.454;6.628;2022-09-29T15:11:23;2.55;;;1.05;;
40320;SDS011;26027;51.454;6.628;2022-09-29T15:13:49;1.88;;;0.90;;
40320;SDS011;26027;51.454;6.628;2022-09-29T15:16:19;1.08;;;0.98;;
40320;SDS011;26027;51.454;6.628;2022-09-29T15:21:26;0.95;;;0.88;;
40320;SDS011;26027;51.454;6.628;2022-09-29T15:26:23;1.80;;;1.00;;
40320;SDS011;26027;51.454;6.628;2022-09-29T15:28:51;3.85;;;1.20;;
40320;SDS011;26027;51.454;6.628;2022-09-29T15:31:18;1.60;;;1.00;;
40320;SDS011;26027;51.454;6.628;2022-09-29T15:33:46;2.20;;;0.90;;
40320;SDS011;26027;51.454;6.628;2022-09-29T15:36:22;0.77;;;0.77;;
40320;SDS011;26027;51.454;6.628;2022-09-29T15:38:59;1.33;;;1.08;;
40320;SDS011;26027;51.454;6.628;2022-09-29T15:41:25;2.40;;;0.98;;
40320;SDS011;26027;51.454;6.628;2022-09-29T15:49:13;1.52;;;1.00;;
40320;SDS011;26027;51.454;6.628;2022-09-29T15:51:40;1.52;;;1.15;;
40320;SDS011;26027;51.454;6.628;2022-09-29T15:54:09;2.25;;;1.10;;
40320;SDS011;26027;51.454;6.628;2022-09-29T15:56:36;2.50;;;0.77;;
40320;SDS011;26027;51.454;6.628;2022-09-29T15:59:37;1.40;;;0.88;;
40320;SDS011;26027;51.454;6.628;2022-09-29T16:02:03;2.60;;;0.85;;
40320;SDS011;26027;51.454;6.628;2022-09-29T16:04:30;1.38;;;0.93;;
40320;SDS011;26027;51.454;6.628;2022-09-29T16:06:57;1.13;;;0.80;;
40320;SDS011;26027;51.454;6.628;2022-09-29T16:09:23;1.88;;;0.98;;
40320;SDS011;26027;51.454;6.628;2022-09-29T16:11:49;3.05;;;1.15;;
40320;SDS011;26027;51.454;6.628;2022-09-29T16:14:22;3.63;;;1.23;;
40320;SDS011;26027;51.454;6.628;2022-09-29T16:16:49;2.53;;;1.00;;
40320;SDS011;26027;51.454;6.628;2022-09-29T16:19:20;1.60;;;0.88;;
40320;SDS011;26027;51.454;6.628;2022-09-29T16:22:00;0.88;;;0.88;;
40320;SDS011;26027;51.454;6.628;2022-09-29T16:24:32;1.40;;;0.80;;
40320;SDS011;26027;51.454;6.628;2022-09-29T16:26:58;1.55;;;0.88;;
40320;SDS011;26027;51.454;6.628;2022-09-29T16:29:35;1.42;;;0.80;;
40320;SDS011;26027;51.454;6.628;2022-09-29T16:32:35;1.85;;;0.82;;
40320;SDS011;26027;51.454;6.628;2022-09-29T16:34:48;0.80;;;0.80;;
40320;SDS011;26027;51.454;6.628;2022-09-29T16:37:14;1.50;;;0.70;;
40320;SDS011;26027;51.454;6.628;2022-09-29T16:39:42;0.90;;;0.90;;
40320;SDS011;26027;51.454;6.628;2022-09-29T16:42:15;0.73;;;0.70;;
40320;SDS011;26027;51.454;6.628;2022-09-29T16:44:42;0.80;;;0.80;;
40320;SDS011;26027;51.454;6.628;2022-09-29T16:47:12;2.40;;;0.95;;
40320;SDS011;26027;51.454;6.628;2022-09-29T16:49:51;1.55;;;0.80;;
40320;SDS011;26027;51.454;6.628;2022-09-29T16:52:27;1.00;;;0.90;;
40320;SDS011;26027;51.454;6.628;2022-09-29T16:57:49;0.98;;;0.93;;
40320;SDS011;26027;51.454;6.628;2022-09-29T17:00:15;1.73;;;1.00;;
40320;SDS011;26027;51.454;6.628;2022-09-29T17:02:42;1.08;;;0.98;;
40320;SDS011;26027;51.454;6.628;2022-09-29T17:05:08;0.90;;;0.80;;
40320;SDS011;26027;51.454;6.628;2022-09-29T17:07:37;1.33;;;1.00;;
40320;SDS011;26027;51.454;6.628;2022-09-29T17:10:06;1.30;;;0.75;;
40320;SDS011;26027;51.454;6.628;2022-09-29T17:12:33;2.22;;;1.00;;
40320;SDS011;26027;51.454;6.628;2022-09-29T17:15:00;0.90;;;0.80;;
40320;SDS011;26027;51.454;6.628;2022-09-29T17:17:27;0.70;;;0.70;;
40320;SDS011;26027;51.454;6.628;2022-09-29T17:19:54;1.52;;;0.85;;
40320;SDS011;26027;51.454;6.628;2022-09-29T17:22:26;0.60;;;0.60;;
40320;SDS011;26027;51.454;6.628;2022-09-29T17:24:52;1.55;;;0.80;;
40320;SDS011;26027;51.454;6.628;2022-09-29T17:27:18;0.80;;;0.63;;
40320;SDS011;26027;51.454;6.628;2022-09-29T17:30:04;1.85;;;0.93;;
40320;SDS011;26027;51.454;6.628;2022-09-29T17:32:30;0.90;;;0.77;;
40320;SDS011;26027;51.454;6.628;2022-09-29T17:34:56;1.17;;;0.70;;
40320;SDS011;26027;51.454;6.628;2022-09-29T17:37:23;0.98;;;0.93;;